Time;durP1;ratioP1;P1;durP2;ratioP2;P2;SDS_P1;SDS_P2;PMS_P1;PMS_P2;Temp;Humidity;BMP_temperature;BMP_pressure;BME280_temperature;BME280_humidity;BME280_pressure;Samples;Min_cycle;Max_cycle;Signal;HPM_P1;HPM_P2
2024/01/14 00:00:41;;;;;;;382.87;148.53;;;;;;;;;;5029941;28;20594;-53
2024/01/14 00:03:07;;;;;;;385.30;152.70;;;;;;;;;;5031730;28;20218;-53
2024/01/14 00:05:33;;;;;;;377.30;143.80;;;;;;;;;;5029283;28;20221;-52
2024/01/14 00:07:59;;;;;;;382.87;145.10;;;;;;;;;;5026929;28;21286;-53
2024/01/14 00:10:25;;;;;;;471.33;188.80;;;;;;;;;;5019947;28;20534;-52
2024/01/14 00:12:51;;;;;;;388.10;151.40;;;;;;;;;;5027805;28;20220;-52
2024/01/14 00:15:18;;;;;;;407.33;160.90;;;;;;;;;;5021875;28;20687;-52
2024/01/14 00:17:45;;;;;;;394.93;155.70;;;;;;;;;;5029035;28;20222;-52
2024/01/14 00:20:11;;;;;;;374.10;145.10;;;;;;;;;;5023764;28;20223;-52
2024/01/14 00:22:37;;;;;;;405.27;159.57;;;;;;;;;;5023186;28;20204;-52
2024/01/14 00:25:03;;;;;;;382.80;147.77;;;;;;;;;;5022209;28;20280;-53
2024/01/14 00:27:29;;;;;;;378.63;145.70;;;;;;;;;;5027784;28;20218;-53
2024/01/14 00:29:57;;;;;;;366.37;142.87;;;;;;;;;;5024262;28;20772;-53
2024/01/14 00:32:23;;;;;;;413.50;160.07;;;;;;;;;;5023125;28;20223;-53
2024/01/14 00:34:49;;;;;;;380.90;146.87;;;;;;;;;;5029052;28;20202;-52
2024/01/14 00:37:15;;;;;;;384.80;149.87;;;;;;;;;;5026144;28;20224;-53
2024/01/14 00:39:41;;;;;;;392.63;153.73;;;;;;;;;;5028764;28;20223;-53
2024/01/14 00:42:07;;;;;;;404.20;157.67;;;;;;;;;;5027853;28;20672;-53
2024/01/14 00:44:33;;;;;;;411.83;161.07;;;;;;;;;;5028030;28;20216;-52
2024/01/14 00:46:59;;;;;;;383.80;148.27;;;;;;;;;;5029057;28;20530;-54
2024/01/14 00:49:25;;;;;;;440.93;172.40;;;;;;;;;;5028627;28;20295;-53
2024/01/14 00:51:51;;;;;;;429.73;166.53;;;;;;;;;;5029385;28;20220;-52
2024/01/14 00:54:17;;;;;;;416.83;163.57;;;;;;;;;;5028943;28;20299;-54
2024/01/14 00:56:43;;;;;;;376.37;147.63;;;;;;;;;;5025655;28;20212;-53
2024/01/14 00:59:09;;;;;;;414.17;162.20;;;3.00;99.90;;;;;;5035433;28;20653;-53
2024/01/14 01:01:35;;;;;;;429.83;165.07;;;;;;;;;;5025042;28;20490;-53
2024/01/14 01:04:01;;;;;;;387.37;146.40;;;;;;;;;;5036095;28;20219;-51
2024/01/14 01:06:27;;;;;;;388.20;149.40;;;;;;;;;;5029014;28;20315;-51
2024/01/14 01:08:53;;;;;;;394.00;152.60;;;;;;;;;;5025736;28;20226;-51
2024/01/14 01:11:19;;;;;;;420.83;161.63;;;;;;;;;;5032297;28;20594;-51
2024/01/14 01:13:45;;;;;;;396.60;148.33;;;;;;;;;;5031052;28;20607;-51
2024/01/14 01:16:11;;;;;;;378.87;147.73;;;;;;;;;;5028239;28;20864;-50
2024/01/14 01:18:37;;;;;;;412.63;160.53;;;;;;;;;;5026844;28;20683;-51
2024/01/14 01:21:03;;;;;;;423.17;164.33;;;;;;;;;;5028543;28;20720;-52
2024/01/14 01:23:28;;;;;;;417.77;163.23;;;;;;;;;;5026288;28;20315;-50
2024/01/14 01:25:54;;;;;;;432.03;170.07;;;;;;;;;;5024618;28;20190;-51
2024/01/14 01:28:20;;;;;;;408.47;155.87;;;;;;;;;;5029239;28;20309;-51
2024/01/14 01:30:46;;;;;;;408.90;157.67;;;;;;;;;;5025915;28;20215;-51
2024/01/14 01:33:12;;;;;;;381.70;146.83;;;;;;;;;;5030616;28;20486;-51
2024/01/14 01:35:38;;;;;;;376.20;144.70;;;;;;;;;;5027412;28;20269;-51
2024/01/14 01:38:05;;;;;;;391.20;154.13;;;;;;;;;;5027557;28;20653;-51
2024/01/14 01:40:31;;;;;;;421.00;162.90;;;;;;;;;;5019697;28;20207;-51
2024/01/14 01:42:57;;;;;;;378.00;143.40;;;;;;;;;;5028190;28;20215;-51
2024/01/14 01:45:23;;;;;;;444.27;171.47;;;;;;;;;;5024212;28;20410;-51
2024/01/14 01:47:49;;;;;;;382.33;144.47;;;;;;;;;;5028186;28;20227;-53
2024/01/14 01:50:15;;;;;;;383.23;145.47;;;;;;;;;;5027771;28;20303;-51
2024/01/14 01:52:41;;;;;;;370.03;140.50;;;3.10;99.90;;;;;;5025870;28;20717;-51
2024/01/14 01:55:08;;;;;;;391.27;149.13;;;;;;;;;;5025542;28;20219;-52
2024/01/14 01:57:34;;;;;;;387.93;150.20;;;;;;;;;;5028504;28;20617;-51
2024/01/14 02:00:00;;;;;;;387.43;145.73;;;;;;;;;;5030114;28;20586;-51
2024/01/14 02:02:26;;;;;;;435.87;170.00;;;;;;;;;;5021607;28;20573;-53
2024/01/14 02:04:52;;;;;;;390.20;149.23;;;;;;;;;;5029627;28;20203;-51
2024/01/14 02:07:22;;;;;;;377.20;142.50;;;;;;;;;;5031891;28;20392;-51
2024/01/14 02:09:48;;;;;;;423.50;160.60;;;;;;;;;;5025413;28;20440;-51
2024/01/14 02:12:14;;;;;;;365.67;139.20;;;;;;;;;;5024002;28;20215;-51
2024/01/14 02:14:40;;;;;;;440.43;169.13;;;;;;;;;;5024400;28;20739;-51
2024/01/14 02:17:06;;;;;;;412.60;158.57;;;;;;;;;;5029415;28;20188;-50
2024/01/14 02:19:32;;;;;;;411.77;157.90;;;;;;;;;;5026448;28;20519;-50
2024/01/14 02:22:04;;;;;;;422.80;159.17;;;;;;;;;;5023534;28;20222;-51
2024/01/14 02:24:31;;;;;;;452.07;171.40;;;;;;;;;;5022236;28;20216;-51
2024/01/14 02:26:57;;;;;;;389.13;147.83;;;;;;;;;;5026028;28;20207;-53
2024/01/14 02:29:24;;;;;;;406.83;156.70;;;;;;;;;;5028988;28;20219;-51
2024/01/14 02:31:50;;;;;;;391.67;147.80;;;;;;;;;;5031340;28;20215;-51
2024/01/14 02:34:16;;;;;;;381.93;142.67;;;;;;;;;;5026096;28;20212;-50
2024/01/14 02:36:42;;;;;;;401.33;149.23;;;;;;;;;;5028250;28;20219;-51
2024/01/14 02:39:09;;;;;;;405.03;150.73;;;;;;;;;;5019250;28;20347;-51
2024/01/14 02:41:35;;;;;;;425.63;161.07;;;;;;;;;;5023351;28;20215;-51
2024/01/14 02:44:01;;;;;;;392.23;150.57;;;;;;;;;;5025978;28;20308;-50
2024/01/14 02:46:28;;;;;;;380.80;145.40;;;;;;;;;;5024257;28;20195;-51
2024/01/14 02:48:54;;;;;;;371.03;145.07;;;3.10;99.90;;;;;;5027750;28;20732;-52
2024/01/14 02:51:20;;;;;;;389.17;145.97;;;;;;;;;;5032027;28;20310;-53
2024/01/14 02:53:46;;;;;;;423.70;162.30;;;;;;;;;;5027435;28;20226;-51
2024/01/14 02:56:12;;;;;;;433.40;166.60;;;;;;;;;;5028664;28;20218;-50
2024/01/14 02:58:38;;;;;;;389.07;145.53;;;;;;;;;;5028230;28;20641;-51
2024/01/14 03:01:04;;;;;;;390.70;147.17;;;;;;;;;;5022996;28;20266;-52
2024/01/14 03:03:30;;;;;;;404.70;155.87;;;;;;;;;;5030655;28;20589;-50
2024/01/14 03:05:56;;;;;;;398.67;154.13;;;;;;;;;;5020069;28;20290;-51
2024/01/14 03:08:22;;;;;;;377.43;144.07;;;;;;;;;;5028753;28;20805;-51
2024/01/14 03:10:48;;;;;;;405.67;153.90;;;;;;;;;;5026773;28;20267;-52
2024/01/14 03:13:15;;;;;;;387.23;146.97;;;;;;;;;;5027798;28;20230;-51
2024/01/14 03:15:44;;;;;;;391.40;147.83;;;;;;;;;;5024508;28;20211;-51
2024/01/14 03:18:11;;;;;;;410.07;154.63;;;;;;;;;;5022755;28;20212;-51
2024/01/14 03:20:37;;;;;;;398.50;153.23;;;;;;;;;;5031552;28;20211;-51
2024/01/14 03:23:03;;;;;;;366.07;141.73;;;;;;;;;;5029401;28;20577;-51
2024/01/14 03:25:29;;;;;;;381.50;145.90;;;;;;;;;;5024188;28;20610;-51
2024/01/14 03:27:55;;;;;;;370.50;139.30;;;;;;;;;;5022751;28;20230;-51
2024/01/14 03:30:21;;;;;;;419.00;156.60;;;;;;;;;;5023426;28;20215;-51
2024/01/14 03:32:47;;;;;;;391.80;148.50;;;;;;;;;;5025291;28;20519;-51
2024/01/14 03:35:13;;;;;;;395.43;150.87;;;;;;;;;;5028762;28;20188;-52
2024/01/14 03:37:39;;;;;;;415.23;160.70;;;;;;;;;;5018760;28;20276;-51
2024/01/14 03:40:06;;;;;;;413.13;156.67;;;;;;;;;;5041003;28;20259;-52
2024/01/14 03:42:32;;;;;;;390.30;145.87;;;;;;;;;;5021423;28;20685;-52
2024/01/14 03:44:57;;;;;;;383.43;146.70;;;;;;;;;;5022335;28;20354;-52
2024/01/14 03:47:23;;;;;;;413.07;153.90;;;;;;;;;;5026941;28;20300;-51
2024/01/14 03:49:49;;;;;;;382.07;145.37;;;;;;;;;;5021383;28;20219;-51
2024/01/14 03:52:15;;;;;;;441.17;169.57;;;;;;;;;;5021324;28;20235;-51
2024/01/14 03:54:41;;;;;;;386.37;145.50;;;;;;;;;;5029263;28;20742;-51
2024/01/14 03:57:07;;;;;;;396.70;152.73;;;;;;;;;;5026268;28;20222;-52
2024/01/14 03:59:33;;;;;;;390.00;146.47;;;;;;;;;;5027769;28;20219;-51
2024/01/14 04:01:59;;;;;;;384.73;142.83;;;;;;;;;;5026610;28;20180;-52
2024/01/14 04:04:25;;;;;;;395.70;149.20;;;;;;;;;;5005811;28;20202;-52
2024/01/14 04:06:51;;;;;;;475.53;183.67;;;;;;;;;;5025998;28;20211;-51
2024/01/14 04:09:17;;;;;;;426.97;161.53;;;;;;;;;;5023740;28;20299;-51
2024/01/14 04:11:43;;;;;;;384.00;144.97;;;;;;;;;;5020401;28;20224;-52
2024/01/14 04:14:09;;;;;;;423.30;162.57;;;;;;;;;;5026015;28;20724;-51
2024/01/14 04:16:38;;;;;;;441.37;169.60;;;;;;;;;;5030286;28;20183;-51
2024/01/14 04:19:05;;;;;;;376.93;142.77;;;;;;;;;;5030167;28;20211;-52
2024/01/14 04:21:31;;;;;;;393.10;152.73;;;;;;;;;;5027660;28;20638;-51
2024/01/14 04:23:59;;;;;;;394.57;148.03;;;;;;;;;;5025456;28;20637;-52
2024/01/14 04:26:25;;;;;;;371.63;140.70;;;;;;;;;;5023499;28;20258;-50
2024/01/14 04:28:51;;;;;;;387.83;146.97;;;;;;;;;;5026890;28;20542;-52
2024/01/14 04:31:17;;;;;;;398.10;150.47;;;;;;;;;;5026019;28;20793;-51
2024/01/14 04:33:43;;;;;;;367.03;136.63;;;;;;;;;;5040085;28;20227;-49
2024/01/14 04:36:09;;;;;;;358.67;132.20;;;;;;;;;;5046411;28;20219;-49
2024/01/14 04:38:35;;;;;;;362.43;135.13;;;;;;;;;;5029553;28;20220;-49
2024/01/14 04:41:01;;;;;;;350.07;133.90;;;;;;;;;;5026338;28;20520;-49
2024/01/14 04:43:28;;;;;;;376.90;140.80;;;;;;;;;;5026861;28;20266;-50
2024/01/14 04:45:54;;;;;;;358.13;134.53;;;;;;;;;;5026278;28;20216;-49
2024/01/14 04:48:20;;;;;;;365.13;136.27;;;;;;;;;;5026162;28;20230;-49
2024/01/14 04:50:46;;;;;;;339.30;128.17;;;;;;;;;;5026080;28;20219;-49
2024/01/14 04:53:12;;;;;;;346.00;129.63;;;;;;;;;;5025979;28;20200;-48
2024/01/14 04:55:38;;;;;;;341.53;128.73;;;2.60;99.90;;;;;;5027052;28;20242;-49
2024/01/14 04:58:04;;;;;;;365.77;135.80;;;;;;;;;;5026313;28;20219;-49
2024/01/14 05:00:30;;;;;;;341.17;127.27;;;;;;;;;;5026391;28;20216;-49
2024/01/14 05:02:56;;;;;;;357.00;132.73;;;;;;;;;;5025901;28;20314;-49
2024/01/14 05:05:23;;;;;;;364.87;134.83;;;;;;;;;;5025984;28;20205;-49
2024/01/14 05:07:49;;;;;;;352.83;132.37;;;;;;;;;;5026673;28;20176;-49
2024/01/14 05:10:15;;;;;;;368.43;134.80;;;;;;;;;;5026025;28;20315;-50
2024/01/14 05:12:41;;;;;;;361.67;136.57;;;;;;;;;;5025995;28;20224;-49
2024/01/14 05:15:07;;;;;;;348.90;130.10;;;2.60;99.90;;;;;;5026484;28;20208;-50
2024/01/14 05:17:32;;;;;;;344.97;129.97;;;;;;;;;;5026416;28;20259;-49
2024/01/14 05:19:58;;;;;;;373.63;137.90;;;;;;;;;;5025805;28;20177;-50
2024/01/14 05:22:24;;;;;;;357.80;135.50;;;;;;;;;;5026449;28;20494;-49
2024/01/14 05:24:50;;;;;;;362.20;136.97;;;;;;;;;;5025754;28;20788;-49
2024/01/14 05:27:17;;;;;;;353.83;130.13;;;;;;;;;;5026625;28;20215;-49
2024/01/14 05:29:45;;;;;;;332.63;126.37;;;;;;;;;;5029365;28;20625;-50
2024/01/14 05:32:13;;;;;;;362.87;137.90;;;;;;;;;;5048744;28;20368;-50
2024/01/14 05:34:39;;;;;;;359.10;131.63;;;;;;;;;;5049768;28;20156;-49
2024/01/14 05:37:06;;;;;;;351.23;132.33;;;;;;;;;;5049380;28;20817;-49
2024/01/14 05:39:32;;;;;;;364.03;133.27;;;;;;;;;;5049011;28;20207;-49
2024/01/14 05:41:58;;;;;;;361.37;133.93;;;;;;;;;;5049077;28;20291;-49
2024/01/14 05:44:24;;;;;;;368.07;135.20;;;;;;;;;;5048990;28;20230;-49
2024/01/14 05:46:50;;;;;;;363.47;133.63;;;;;;;;;;5049709;28;20176;-49
2024/01/14 05:49:16;;;;;;;384.07;143.23;;;;;;;;;;5048786;28;20231;-49
2024/01/14 05:51:42;;;;;;;359.17;133.40;;;;;;;;;;5049124;28;20238;-49
2024/01/14 05:54:08;;;;;;;356.37;134.03;;;;;;;;;;5048820;28;20219;-50
2024/01/14 05:56:34;;;;;;;355.57;132.90;;;;;;;;;;5049140;28;20220;-49
2024/01/14 05:59:00;;;;;;;359.27;131.07;;;;;;;;;;5048738;28;20278;-50
2024/01/14 06:01:27;;;;;;;367.40;136.40;;;;;;;;;;5049491;28;20770;-50
2024/01/14 06:03:53;;;;;;;369.77;136.30;;;;;;;;;;5048498;28;20215;-50
2024/01/14 06:06:20;;;;;;;347.67;128.37;;;;;;;;;;5048508;28;20219;-49
2024/01/14 06:08:46;;;;;;;353.77;133.40;;;;;;;;;;5049001;28;20212;-50
2024/01/14 06:11:13;;;;;;;362.43;136.33;;;;;;;;;;5048943;28;20378;-49
2024/01/14 06:13:39;;;;;;;343.07;129.67;;;2.40;99.90;;;;;;5049257;28;20549;-49
2024/01/14 06:16:05;;;;;;;367.33;135.60;;;;;;;;;;5048622;28;20230;-49
2024/01/14 06:18:31;;;;;;;366.47;137.13;;;;;;;;;;5048109;28;20219;-49
2024/01/14 06:20:59;;;;;;;362.17;135.00;;;;;;;;;;5048561;28;20621;-50
2024/01/14 06:23:25;;;;;;;361.73;133.83;;;;;;;;;;5048165;28;20286;-49
2024/01/14 06:25:51;;;;;;;358.10;133.30;;;;;;;;;;5048969;28;20214;-49
2024/01/14 06:28:17;;;;;;;356.53;130.87;;;;;;;;;;5048329;28;20262;-52
2024/01/14 06:30:43;;;;;;;373.50;137.97;;;2.50;99.90;;;;;;5048472;28;20228;-49
2024/01/14 06:33:09;;;;;;;352.07;131.80;;;;;;;;;;5048266;28;20673;-49
2024/01/14 06:35:35;;;;;;;354.20;132.47;;;;;;;;;;5048104;28;20211;-49
2024/01/14 06:38:01;;;;;;;348.43;129.77;;;;;;;;;;5048243;28;20171;-49
2024/01/14 06:40:27;;;;;;;372.50;135.73;;;;;;;;;;5048242;28;20453;-49
2024/01/14 06:42:53;;;;;;;375.23;139.73;;;;;;;;;;5048116;28;20227;-49
2024/01/14 06:45:19;;;;;;;372.97;138.77;;;;;;;;;;5048023;28;20222;-49
2024/01/14 06:47:45;;;;;;;360.20;134.33;;;;;;;;;;5048046;28;20298;-49
2024/01/14 06:50:11;;;;;;;339.80;131.53;;;;;;;;;;5047609;28;20198;-49
2024/01/14 06:52:37;;;;;;;351.13;132.17;;;;;;;;;;5048888;28;20199;-49
2024/01/14 06:55:07;;;;;;;357.70;132.07;;;;;;;;;;5047920;28;20273;-49
2024/01/14 06:57:33;;;;;;;382.17;144.40;;;;;;;;;;5047988;28;20219;-49
2024/01/14 07:00:00;;;;;;;361.30;135.93;;;;;;;;;;5047686;28;20219;-49
2024/01/14 07:02:26;;;;;;;338.87;127.33;;;;;;;;;;5047980;28;20737;-49
2024/01/14 07:04:52;;;;;;;336.43;126.27;;;;;;;;;;5048547;28;20262;-49
2024/01/14 07:07:18;;;;;;;345.33;129.33;;;;;;;;;;5047735;28;20219;-49
2024/01/14 07:09:44;;;;;;;355.73;134.03;;;;;;;;;;5047623;28;20226;-49
2024/01/14 07:12:10;;;;;;;368.87;138.20;;;;;;;;;;5047647;28;20246;-49
2024/01/14 07:14:37;;;;;;;367.43;139.63;;;;;;;;;;5047004;28;20702;-49
2024/01/14 07:17:03;;;;;;;362.50;134.00;;;;;;;;;;5028020;28;20659;-49
2024/01/14 07:19:29;;;;;;;345.70;128.33;;;;;;;;;;5027800;28;20169;-49
2024/01/14 07:21:56;;;;;;;345.13;131.00;;;;;;;;;;5038440;28;20219;-49
2024/01/14 07:24:22;;;;;;;359.70;133.67;;;;;;;;;;5047657;28;20226;-49
2024/01/14 07:26:47;;;;;;;357.77;133.77;;;2.30;99.90;;;;;;5046473;28;20293;-49
2024/01/14 07:29:13;;;;;;;336.30;126.77;;;;;;;;;;5047356;28;20175;-50
2024/01/14 07:31:39;;;;;;;362.20;132.50;;;;;;;;;;5047543;28;20199;-50
2024/01/14 07:34:06;;;;;;;361.73;133.13;;;;;;;;;;5046880;28;20219;-50
2024/01/14 07:36:32;;;;;;;333.67;123.83;;;;;;;;;;5047228;28;20223;-49
2024/01/14 07:38:59;;;;;;;355.07;132.40;;;;;;;;;;5046927;28;20333;-49
2024/01/14 07:41:25;;;;;;;367.00;136.27;;;;;;;;;;5047132;28;20734;-50
2024/01/14 07:43:51;;;;;;;353.87;133.93;;;;;;;;;;5047760;28;20294;-50
2024/01/14 07:46:18;;;;;;;342.07;128.43;;;;;;;;;;5047186;28;20207;-49
2024/01/14 07:48:44;;;;;;;352.13;131.37;;;;;;;;;;5043292;28;20254;-50
2024/01/14 07:51:10;;;;;;;375.37;138.33;;;;;;;;;;5026280;28;20331;-50
2024/01/14 07:53:37;;;;;;;369.27;137.57;;;;;;;;;;5027384;28;20303;-50
2024/01/14 07:56:03;;;;;;;364.50;136.67;;;;;;;;;;5047233;28;20191;-50
2024/01/14 07:58:29;;;;;;;362.00;135.13;;;;;;;;;;5047297;28;20175;-50
2024/01/14 08:00:56;;;;;;;349.70;131.40;;;;;;;;;;5028889;28;20262;-50
2024/01/14 08:03:23;;;;;;;366.97;136.37;;;;;;;;;;5046579;28;20254;-50
2024/01/14 08:05:49;;;;;;;325.07;124.20;;;;;;;;;;5029029;28;20310;-50
2024/01/14 08:08:15;;;;;;;341.63;129.13;;;;;;;;;;5042754;28;20221;-50
2024/01/14 08:10:43;;;;;;;338.57;129.10;;;;;;;;;;5026929;28;20234;-49
2024/01/14 08:13:09;;;;;;;354.50;135.57;;;;;;;;;;5043694;28;20211;-50
2024/01/14 08:15:35;;;;;;;340.00;127.27;;;;;;;;;;5042366;28;20732;-50
2024/01/14 08:18:02;;;;;;;370.63;136.67;;;;;;;;;;5046534;28;20219;-50
2024/01/14 08:20:31;;;;;;;340.83;127.20;;;;;;;;;;5046561;28;20582;-50
2024/01/14 08:22:57;;;;;;;349.13;129.00;;;;;;;;;;5047304;28;20196;-50
2024/01/14 08:25:24;;;;;;;347.47;132.73;;;;;;;;;;5047035;28;20566;-50
2024/01/14 08:27:55;;;;;;;358.47;134.23;;;;;;;;;;5046450;28;20212;-49
2024/01/14 08:30:21;;;;;;;374.13;135.93;;;;;;;;;;5046263;28;20306;-50
2024/01/14 08:32:47;;;;;;;351.10;131.07;;;;;;;;;;5044651;28;20393;-50
2024/01/14 08:35:13;;;;;;;354.67;133.10;;;;;;;;;;5046390;28;20207;-50
2024/01/14 08:37:41;;;;;;;338.17;128.83;;;;;;;;;;5030880;28;20241;-51
2024/01/14 08:40:08;;;;;;;364.47;135.50;;;;;;;;;;5026766;28;20650;-50
2024/01/14 08:42:33;;;;;;;337.37;128.90;;;2.40;99.90;;;;;;5026598;28;20224;-50
2024/01/14 08:44:59;;;;;;;362.17;136.73;;;;;;;;;;5026624;28;20211;-50
2024/01/14 08:47:25;;;;;;;360.17;134.17;;;;;;;;;;5035852;28;20212;-50
2024/01/14 08:49:51;;;;;;;346.53;131.97;;;;;;;;;;5046647;28;20213;-50
2024/01/14 08:52:17;;;;;;;354.63;132.97;;;;;;;;;;5046181;28;20348;-50
2024/01/14 08:54:43;;;;;;;333.17;127.00;;;;;;;;;;5047031;28;20261;-50
2024/01/14 08:57:11;;;;;;;345.03;129.80;;;;;;;;;;5046640;28;20214;-50
2024/01/14 08:59:37;;;;;;;364.47;135.90;;;;;;;;;;5046566;28;20226;-50
2024/01/14 09:02:03;;;;;;;350.53;131.83;;;;;;;;;;5046905;28;20260;-51
2024/01/14 09:04:29;;;;;;;366.83;135.43;;;;;;;;;;5044875;28;20172;-50
2024/01/14 09:06:55;;;;;;;367.17;139.10;;;2.50;99.90;;;;;;5030139;28;20354;-50
2024/01/14 09:09:21;;;;;;;368.97;136.63;;;;;;;;;;5036263;28;20246;-50
2024/01/14 09:11:47;;;;;;;345.70;129.70;;;;;;;;;;5050247;28;20229;-50
2024/01/14 09:14:12;;;;;;;351.67;133.53;;;2.90;99.90;;;;;;5050029;28;20312;-50
2024/01/14 09:16:38;;;;;;;335.90;127.00;;;;;;;;;;5050675;28;20604;-50
2024/01/14 09:19:04;;;;;;;346.73;129.87;;;;;;;;;;5049831;28;20266;-52
2024/01/14 09:21:30;;;;;;;338.10;129.20;;;;;;;;;;5050041;28;20689;-51
2024/01/14 09:23:56;;;;;;;345.43;129.83;;;;;;;;;;5049438;28;20224;-51
2024/01/14 09:26:22;;;;;;;350.53;131.60;;;;;;;;;;5050003;28;20678;-51
2024/01/14 09:28:49;;;;;;;361.53;137.37;;;;;;;;;;5050412;28;20179;-52
2024/01/14 09:31:14;;;;;;;353.03;138.70;;;2.70;99.90;;;;;;5049495;28;20220;-51
2024/01/14 09:33:40;;;;;;;349.40;135.07;;;3.00;99.90;;;;;;5049290;28;20284;-52
2024/01/14 09:36:07;;;;;;;353.60;138.93;;;2.90;99.90;;;;;;5049686;28;20210;-51
2024/01/14 09:42:14;;;;;;;343.70;130.27;;;2.80;99.90;;;;;;5049406;28;20281;-51
2024/01/14 09:44:40;;;;;;;353.50;134.07;;;;;;;;;;5050017;28;20219;-51
2024/01/14 09:47:08;;;;;;;364.80;136.43;;;3.00;99.90;;;;;;5050061;28;20237;-51
2024/01/14 09:49:35;;;;;;;356.37;132.13;;;3.10;99.90;;;;;;5050227;28;20256;-51
2024/01/14 09:52:04;;;;;;;337.63;127.13;;;3.10;99.90;;;;;;5049775;28;20215;-51
2024/01/14 09:54:31;;;;;;;359.50;134.60;;;;;;;;;;5049485;28;20211;-51
2024/01/14 09:57:01;;;;;;;357.87;134.90;;;3.10;99.90;;;;;;5049608;28;20264;-51
2024/01/14 09:59:28;;;;;;;363.07;135.43;;;4.70;99.90;;;;;;5049401;28;20207;-51
2024/01/14 10:01:54;;;;;;;351.37;134.63;;;3.10;99.90;;;;;;5049872;28;20534;-50
2024/01/14 10:04:20;;;;;;;348.67;132.30;;;;;;;;;;5049032;28;20215;-50
2024/01/14 10:06:47;;;;;;;361.17;138.13;;;3.10;99.90;;;;;;5049373;28;20313;-51
2024/01/14 10:09:13;;;;;;;344.53;127.30;;;;;;;;;;5049155;28;20297;-50
2024/01/14 10:11:39;;;;;;;357.90;134.47;;;;;;;;;;5049033;28;20705;-50
2024/01/14 10:14:05;;;;;;;374.60;140.80;;;;;;;;;;5048053;28;20199;-50
2024/01/14 10:16:31;;;;;;;363.47;139.30;;;;;;;;;;5049238;28;20289;-51
2024/01/14 10:18:57;;;;;;;370.63;141.60;;;;;;;;;;5048609;28;20249;-50
2024/01/14 10:21:26;;;;;;;368.17;137.07;;;3.00;99.90;;;;;;5048954;28;20219;-51
2024/01/14 10:23:54;;;;;;;368.90;139.47;;;3.10;99.90;;;;;;5049628;28;20697;-52
2024/01/14 10:26:22;;;;;;;366.53;137.13;;;3.10;99.90;;;;;;5050152;28;20286;-50
2024/01/14 10:28:48;;;;;;;370.40;140.30;;;;;;;;;;5050152;28;20266;-50
2024/01/14 10:31:14;;;;;;;368.97;136.40;;;3.00;99.90;;;;;;5049748;28;20384;-50
2024/01/14 10:33:40;;;;;;;389.37;143.97;;;;;;;;;;5034585;28;20229;-52
2024/01/14 10:36:10;;;;;;;425.00;164.80;;;2.90;99.90;;;;;;5025921;28;20297;-52
2024/01/14 10:38:36;;;;;;;373.90;142.27;;;2.90;99.90;;;;;;5031424;28;20409;-51
2024/01/14 10:41:03;;;;;;;422.17;162.30;;;;;;;;;;5029813;28;20208;-52
2024/01/14 10:43:29;;;;;;;381.37;144.93;;;;;;;;;;5030358;28;20208;-53
2024/01/14 10:45:55;;;;;;;417.40;157.67;;;;;;;;;;5024486;28;20499;-51
2024/01/14 10:48:26;;;;;;;425.83;157.53;;;3.00;99.90;;;;;;5024460;28;20299;-52
2024/01/14 10:50:58;;;;;;;388.83;146.77;;;3.10;99.90;;;;;;5025243;28;20263;-52
2024/01/14 10:53:30;;;;;;;400.47;149.20;;;3.10;99.90;;;;;;5028891;28;20270;-52
2024/01/14 10:56:03;;;;;;;370.23;138.90;;;3.00;99.90;;;;;;5032970;28;20253;-53
2024/01/14 10:58:36;;;;;;;372.77;140.13;;;;;;;;;;5020892;28;20681;-51
2024/01/14 11:01:04;;;;;;;424.40;158.63;;;3.30;99.90;;;;;;5030405;28;20666;-52
2024/01/14 11:03:30;;;;;;;388.47;148.47;;;;;;;;;;5025643;28;20230;-52
2024/01/14 11:05:56;;;;;;;378.70;143.50;;;;;;;;;;5008793;28;20219;-51
2024/01/14 11:08:23;;;;;;;380.97;141.77;;;;;;;;;;5036100;28;20698;-52
2024/01/14 11:10:52;;;;;;;400.63;150.47;;;;;;;;;;5033342;28;20715;-52
2024/01/14 11:13:30;;;;;;;380.97;140.27;;;;;;;;;;5028109;28;20257;-52
2024/01/14 11:16:13;;;;;;;383.90;145.07;;;;;;;;;;5022514;28;20310;-53
2024/01/14 11:18:43;;;;;;;400.83;152.23;;;;;;;;;;5028577;28;20215;-52
2024/01/14 11:21:09;;;;;;;408.20;154.80;;;;;;;;;;5030411;28;20250;-52
2024/01/14 11:23:35;;;;;;;412.57;158.03;;;;;;;;;;5025673;28;20219;-51
2024/01/14 11:26:01;;;;;;;420.60;162.10;;;;;;;;;;5020697;28;20187;-52
2024/01/14 11:28:28;;;;;;;364.00;140.53;;;;;;;;;;5030132;28;20179;-53
2024/01/14 11:30:55;;;;;;;389.10;146.67;;;;;;;;;;5029838;28;20679;-52
2024/01/14 11:33:42;;;;;;;361.17;136.53;;;3.40;99.90;;;;;;5030690;28;20326;-52
2024/01/14 11:36:08;;;;;;;404.93;161.43;;;;;;;;;;5033574;28;20749;-52
2024/01/14 11:38:38;;;;;;;404.97;157.17;;;;;;;;;;5029257;28;20254;-51
2024/01/14 11:41:42;;;;;;;391.50;150.20;;;3.10;99.90;;;;;;5030909;28;20196;-51
2024/01/14 11:44:11;;;;;;;432.13;169.97;;;3.20;99.90;;;;;;4945749;28;20318;-52
2024/01/14 11:46:47;;;;;;;411.13;158.00;;;3.30;99.90;;;;;;5004663;28;20318;-51
2024/01/14 11:49:17;;;;;;;464.80;181.90;;;;;;;;;;5018119;28;20780;-52
2024/01/14 11:52:00;;;;;;;403.87;154.53;;;;;;;;;;5029415;28;20246;-52
2024/01/14 11:54:26;;;;;;;420.67;160.07;;;;;;;;;;5021970;28;20253;-53
2024/01/14 11:56:52;;;;;;;431.43;165.00;;;;;;;;;;5020997;28;20225;-52
2024/01/14 11:59:19;;;;;;;414.77;159.00;;;;;;;;;;5020428;28;20222;-52
2024/01/14 12:01:45;;;;;;;428.63;164.10;;;;;;;;;;5028695;28;20204;-52
2024/01/14 12:04:11;;;;;;;417.07;159.47;;;;;;;;;;5029920;28;20251;-52
2024/01/14 12:06:49;;;;;;;370.00;143.53;;;3.40;99.90;;;;;;5028161;28;20230;-51
2024/01/14 12:09:17;;;;;;;451.70;172.73;;;;;;;;;;5022382;28;20310;-52
2024/01/14 12:11:43;;;;;;;420.33;156.80;;;;;;;;;;5024478;28;20571;-51
2024/01/14 12:14:09;;;;;;;449.33;174.70;;;;;;;;;;5017448;28;20215;-51
2024/01/14 12:16:38;;;;;;;433.77;167.27;;;3.50;99.90;;;;;;5018715;28;20191;-52
2024/01/14 12:19:13;;;;;;;417.50;155.70;;;;;;;;;;5022682;28;20324;-52
2024/01/14 12:21:39;;;;;;;370.37;137.60;;;;;;;;;;5022545;28;20226;-52
2024/01/14 12:24:06;;;;;;;453.43;177.70;;;;;;;;;;5016727;28;20211;-51
2024/01/14 12:26:32;;;;;;;450.27;177.30;;;;;;;;;;5026517;28;20506;-52
2024/01/14 12:28:57;;;;;;;391.30;147.93;;;3.30;99.90;;;;;;5016871;28;20848;-53
2024/01/14 12:31:25;;;;;;;394.70;147.20;;;;;;;;;;5026024;28;20277;-51
2024/01/14 12:33:52;;;;;;;421.47;160.17;;;;;;;;;;5017496;28;20311;-52
2024/01/14 12:36:18;;;;;;;429.00;162.17;;;;;;;;;;5020220;28;20224;-51
2024/01/14 12:38:44;;;;;;;399.83;149.73;;;;;;;;;;5029516;28;20682;-51
2024/01/14 12:41:11;;;;;;;422.70;164.10;;;;;;;;;;5027883;28;20175;-53
2024/01/14 12:43:37;;;;;;;463.43;180.10;;;;;;;;;;5029140;28;20207;-52
2024/01/14 12:46:04;;;;;;;444.07;174.07;;;;;;;;;;5018857;28;20628;-51
2024/01/14 12:48:30;;;;;;;382.97;146.60;;;;;;;;;;5031548;28;20737;-51
2024/01/14 12:51:00;;;;;;;414.57;158.53;;;3.20;99.90;;;;;;5014488;28;20243;-51
2024/01/14 12:53:27;;;;;;;400.03;154.97;;;2.90;99.90;;;;;;5024002;28;20306;-52
2024/01/14 12:56:14;;;;;;;385.23;145.80;;;3.30;99.90;;;;;;5027284;28;20234;-52
2024/01/14 12:58:41;;;;;;;391.77;148.10;;;;;;;;;;5032344;28;20220;-51
2024/01/14 13:01:08;;;;;;;430.97;162.90;;;;;;;;;;5023445;28;20586;-52
2024/01/14 13:03:36;;;;;;;416.63;159.97;;;;;;;;;;5019456;28;20705;-53
2024/01/14 13:06:04;;;;;;;384.80;146.87;;;;;;;;;;5030544;28;20310;-52
2024/01/14 13:08:30;;;;;;;480.33;188.70;;;;;;;;;;5017035;28;20590;-53
2024/01/14 13:10:56;;;;;;;377.63;140.97;;;;;;;;;;5026847;28;20261;-52
2024/01/14 13:13:22;;;;;;;438.37;163.03;;;;;;;;;;5021822;28;20212;-52
2024/01/14 13:15:48;;;;;;;379.63;141.97;;;;;;;;;;5029578;28;20211;-52
2024/01/14 13:18:14;;;;;;;401.33;151.10;;;;;;;;;;5028549;28;20645;-52
2024/01/14 13:20:40;;;;;;;439.07;165.20;;;;;;;;;;5022511;28;20212;-52
2024/01/14 13:23:06;;;;;;;438.87;166.80;;;;;;;;;;5020418;28;20196;-52
2024/01/14 13:25:32;;;;;;;410.13;152.23;;;;;;;;;;5018327;28;20685;-52
2024/01/14 13:27:58;;;;;;;397.50;148.43;;;;;;;;;;5024453;28;20302;-52
2024/01/14 13:30:24;;;;;;;450.23;171.87;;;;;;;;;;5014631;28;20266;-52
2024/01/14 13:32:51;;;;;;;413.50;158.73;;;3.10;99.90;;;;;;5032924;28;20215;-52
2024/01/14 13:35:17;;;;;;;466.60;165.63;;;;;;;;;;5019108;28;21264;-52
2024/01/14 13:37:43;;;;;;;441.13;159.13;;;;;;;;;;5024526;28;20184;-52
2024/01/14 13:40:09;;;;;;;537.53;193.03;;;;;;;;;;5025193;28;20453;-53